Fangst — LK6971 — position and weather

sailwx.info

Track history (hours):
 
Tides and Currents Weather Stations Pressure Air Temp Water Temp Dewpoint Dewpoint Depression Visibility Wind Speed Wind Dir Waves Ship Positions

Oceanographic research ship Fangst (Norway)

Detailed information on ship capabilities available from University of Delaware's Ocean Information Center and ARCUS's ALIAS (Arctic Logistics Information and Support) project.

Last reported at 2017-Dec-14 16:19 UTC. Time now 2017-Dec-18 09:17 UTC.
Position N 62°42' E 006°39'.

Length 14 m; draft 3 m.

Type: Fishing. MMSI: 257076840.

Date/timePositionNaut miles runAvg speedWind from/ knotsBaromVisibWave heightAir tempDewpointWater temp
2017-Dec-14 16:19N 62°42' E 006°39'2 5.6
2017-Dec-14 15:58N 62°44' E 006°39'7 7.0
2017-Dec-14 15:00N 62°50' E 006°45'4 7.2
2017-Dec-14 14:30N 62°53' E 006°51'3 6.6
2017-Dec-14 14:00N 62°55' E 006°56'5 6.9
2017-Dec-14 13:20N 62°59' E 007°02'2 7.4
2017-Dec-14 13:00N 63°00' E 007°07'4 7.6
2017-Dec-14 12:30N 63°01' E 007°15'4 7.6
2017-Dec-14 12:00N 63°03' E 007°22'4 7.8
2017-Dec-14 11:31N 63°05' E 007°29'4 7.7
2017-Dec-14 11:00N 63°07' E 007°36'4 7.1
2017-Dec-14 10:31N 63°07' E 007°44'0 0.4
2017-Dec-14 10:00N 63°07' E 007°44'0 0.0
2017-Dec-14 09:30N 63°07' E 007°44'0 0.0
2017-Dec-14 09:00N 63°07' E 007°44'2 4.6
2017-Dec-14 08:30N 63°08' E 007°48'3 6.0
2017-Dec-14 08:00N 63°10' E 007°53'3 6.9
2017-Dec-14 07:30N 63°13' E 007°58'4 7.2
2017-Dec-14 07:00N 63°15' E 008°04'3 6.7
2017-Dec-14 06:29N 63°17' E 008°10'112 6.5
2017-Dec-13 13:11N 64°43' E 010°54'2 7.5
2017-Dec-13 12:53N 64°44' E 010°58'3 7.4
2017-Dec-13 12:30N 64°46' E 011°03'4 7.4
2017-Dec-13 12:00N 64°49' E 011°08'3 6.6
2017-Dec-13 11:31N 64°51' E 011°14'0 0.0
2017-Dec-13 11:00N 64°51' E 011°14'0 0.0
2017-Dec-13 10:30N 64°51' E 011°14'0 0.0
2017-Dec-13 10:00N 64°51' E 011°14'0 0.0
2017-Dec-13 09:30N 64°51' E 011°14'0 0.0
2017-Dec-13 09:00N 64°51' E 011°14'0 0.0
2017-Dec-13 08:30N 64°51' E 011°14'0 0.0
2017-Dec-13 08:00N 64°51' E 011°14'0 0.0
2017-Dec-13 07:30N 64°51' E 011°14'0 0.0
2017-Dec-13 07:00N 64°51' E 011°14'0 0.0
2017-Dec-13 06:30N 64°51' E 011°14'0 0.0
2017-Dec-13 06:00N 64°51' E 011°14'0 0.0
2017-Dec-13 05:30N 64°51' E 011°14'0 0.0
2017-Dec-13 05:00N 64°51' E 011°14'0 0.0
2017-Dec-13 04:30N 64°51' E 011°14'0 0.0
2017-Dec-13 04:00N 64°51' E 011°14'0 0.0
2017-Dec-13 03:30N 64°51' E 011°14'0 0.0
2017-Dec-13 03:00N 64°51' E 011°14'0 0.0
2017-Dec-13 02:30N 64°51' E 011°14'0 0.0
2017-Dec-13 02:00N 64°51' E 011°14'0 0.0
2017-Dec-13 01:30N 64°51' E 011°14'0 0.0
2017-Dec-13 01:00N 64°51' E 011°14'0 0.0
2017-Dec-13 00:30N 64°51' E 011°14'0 0.0
2017-Dec-13 00:00N 64°51' E 011°14'0 0.0
2017-Dec-12 23:30N 64°51' E 011°14'0 0.0
2017-Dec-12 23:00N 64°51' E 011°14'0 0.0
2017-Dec-12 22:30N 64°51' E 011°14'0 0.0
2017-Dec-12 22:00N 64°51' E 011°14'0 0.0
2017-Dec-12 21:30N 64°51' E 011°14'0 0.0
2017-Dec-12 21:00N 64°51' E 011°14'0 0.0
2017-Dec-12 20:30N 64°51' E 011°14'0 0.0
2017-Dec-12 20:00N 64°51' E 011°14'0 0.0
2017-Dec-12 19:30N 64°51' E 011°14'0 0.0
2017-Dec-12 19:00N 64°51' E 011°14'0 0.0
2017-Dec-12 18:30N 64°51' E 011°14'0 0.0
2017-Dec-12 18:00N 64°51' E 011°14'0 0.0
2017-Dec-12 17:30N 64°51' E 011°14'0 0.0
2017-Dec-12 17:00N 64°51' E 011°14'0 0.0
2017-Dec-12 16:30N 64°51' E 011°14'0 0.0
2017-Dec-12 16:00N 64°51' E 011°14'0 0.0
2017-Dec-12 15:30N 64°51' E 011°14'0 0.0
2017-Dec-12 15:00N 64°51' E 011°14'0 0.0
2017-Dec-12 14:30N 64°51' E 011°14'0 0.0
2017-Dec-12 14:00N 64°51' E 011°14'0 0.0
2017-Dec-12 13:30N 64°51' E 011°14'0 0.0
2017-Dec-12 13:00N 64°51' E 011°14'0 0.0
2017-Dec-12 12:30N 64°51' E 011°14'0 0.0
2017-Dec-12 11:58N 64°51' E 011°14'0 0.9
2017-Dec-12 11:31N 64°51' E 011°13'3 6.4
2017-Dec-12 11:01N 64°49' E 011°08'2 3.2
2017-Dec-12 10:30N 64°48' E 011°06'3 5.8
2017-Dec-12 10:01N 64°50' E 011°10'2 4.0
2017-Dec-12 09:31N 64°51' E 011°13'1 1.5
2017-Dec-12 08:58N 64°52' E 011°15'0 0.1
2017-Dec-12 08:28N 64°52' E 011°15'0 0.0
2017-Dec-12 07:58N 64°52' E 011°15'0 0.0
2017-Dec-12 07:28N 64°52' E 011°15'0 0.9
2017-Dec-12 06:58N 64°51' E 011°14'0 0.0
2017-Dec-12 06:28N 64°51' E 011°14'0 0.0
2017-Dec-12 05:58N 64°51' E 011°14'0 0.0
2017-Dec-12 05:28N 64°51' E 011°14'0 0.0
2017-Dec-12 04:58N 64°51' E 011°14'0 0.0
2017-Dec-12 04:28N 64°51' E 011°14'0 0.0
2017-Dec-12 03:58N 64°51' E 011°14'0 0.0
2017-Dec-12 03:28N 64°51' E 011°14'0 0.0
2017-Dec-12 02:58N 64°51' E 011°14'0 0.0
2017-Dec-12 02:28N 64°51' E 011°14'0 0.0
2017-Dec-12 01:58N 64°51' E 011°14'0 0.0
2017-Dec-12 01:25N 64°51' E 011°14'0 0.0
2017-Dec-12 00:58N 64°51' E 011°14'0 0.0
2017-Dec-12 00:28N 64°51' E 011°14'0 0.0
2017-Dec-11 23:58N 64°51' E 011°14'0 0.0
2017-Dec-11 23:28N 64°51' E 011°14'0 0.0
2017-Dec-11 22:58N 64°51' E 011°14'0 0.0
2017-Dec-11 22:28N 64°51' E 011°14'0 0.0
2017-Dec-11 21:58N 64°51' E 011°14'0 0.0
2017-Dec-11 21:28N 64°51' E 011°14'0 0.0
2017-Dec-11 20:58N 64°51' E 011°14'0 0.0
2017-Dec-11 20:28N 64°51' E 011°14'0 0.0
2017-Dec-11 19:58N 64°51' E 011°14'0 0.0
2017-Dec-11 19:28N 64°51' E 011°14'2 4.6
2017-Dec-11 19:00N 64°53' E 011°18'3 6.5
2017-Dec-11 18:30N 64°56' E 011°22'2 4.6
2017-Dec-11 18:00N 64°58' E 011°20'3 6.5
2017-Dec-11 17:30N 64°59' E 011°13'3 4.9
2017-Dec-11 16:53N 64°58' E 011°06'5 0.5
2017-Dec-11 06:18N 64°54' E 010°56'2 7.0
2017-Dec-11 06:00N 64°55' E 011°00'3 6.5
2017-Dec-11 05:30N 64°58' E 011°06'4 7.3
2017-Dec-11 05:00N 64°59' E 011°14'4 7.6
2017-Dec-11 04:30N 64°57' E 011°22'4 7.1
2017-Dec-11 04:00N 64°54' E 011°20'4 7.2
2017-Dec-11 03:30N 64°51' E 011°14'0 0.4
2017-Dec-11 02:59N 64°51' E 011°14'0 0.0
2017-Dec-11 02:29N 64°51' E 011°14'0 0.0
2017-Dec-11 01:59N 64°51' E 011°14'0 0.0
2017-Dec-11 01:29N 64°51' E 011°14'0 0.0
2017-Dec-11 00:59N 64°51' E 011°14'0 0.0
2017-Dec-11 00:29N 64°51' E 011°14'0 0.0
2017-Dec-10 23:59N 64°51' E 011°14'0 0.0
2017-Dec-10 23:29N 64°51' E 011°14'0 0.0
2017-Dec-10 22:59N 64°51' E 011°14'0 0.0
2017-Dec-10 22:29N 64°51' E 011°14'0 0.0
2017-Dec-10 21:59N 64°51' E 011°14'0 0.0
2017-Dec-10 21:29N 64°51' E 011°14'0 0.0
2017-Dec-10 20:59N 64°51' E 011°14'0 0.0
2017-Dec-10 20:29N 64°51' E 011°14'0 0.0
2017-Dec-10 19:59N 64°51' E 011°14'0 0.0
2017-Dec-10 19:29N 64°51' E 011°14'0 0.0
2017-Dec-10 18:59N 64°51' E 011°14'0 0.0
2017-Dec-10 18:29N 64°51' E 011°14'0 0.0
2017-Dec-10 17:59N 64°51' E 011°14'0 0.0
2017-Dec-10 17:29N 64°51' E 011°14'0 0.0
2017-Dec-10 16:59N 64°51' E 011°14'0 0.0
2017-Dec-10 16:29N 64°51' E 011°14'0 0.0
2017-Dec-10 15:59N 64°51' E 011°14'0 0.0
2017-Dec-10 15:29N 64°51' E 011°14'0 0.0
2017-Dec-10 14:59N 64°51' E 011°14'0 0.0
2017-Dec-10 14:29N 64°51' E 011°14'0 0.0
2017-Dec-10 13:59N 64°51' E 011°14'0 0.0
2017-Dec-10 13:29N 64°51' E 011°14'0 0.0
2017-Dec-10 12:59N 64°51' E 011°14'0 0.0
2017-Dec-10 12:29N 64°51' E 011°14'0 0.0
2017-Dec-10 11:59N 64°51' E 011°14'0 0.0
2017-Dec-10 11:29N 64°51' E 011°14'0 0.0
2017-Dec-10 10:59N 64°51' E 011°14'0 0.0
2017-Dec-10 10:29N 64°51' E 011°14'0 0.0
2017-Dec-10 09:59N 64°51' E 011°14'0 0.0
2017-Dec-10 09:29N 64°51' E 011°14'0 0.0
2017-Dec-10 08:59N 64°51' E 011°14'0 0.0
2017-Dec-10 08:29N 64°51' E 011°14'0 0.0
2017-Dec-10 07:59N 64°51' E 011°14'0 0.0
2017-Dec-10 07:29N 64°51' E 011°14'0 0.0
2017-Dec-10 06:59N 64°51' E 011°14'0 0.0
2017-Dec-10 06:29N 64°51' E 011°14'0 0.0
2017-Dec-10 05:59N 64°51' E 011°14'0 0.0
2017-Dec-10 05:29N 64°51' E 011°14'0 0.0
2017-Dec-10 04:59N 64°51' E 011°14'0 0.0
2017-Dec-10 04:29N 64°51' E 011°14'0 0.0
2017-Dec-10 03:59N 64°51' E 011°14'0 0.0
2017-Dec-10 03:29N 64°51' E 011°14'0 0.0
2017-Dec-10 02:59N 64°51' E 011°14'0 0.0
2017-Dec-10 02:29N 64°51' E 011°14'0 0.0
2017-Dec-10 01:59N 64°51' E 011°14'0 0.0
2017-Dec-10 01:29N 64°51' E 011°14'0 0.0
2017-Dec-10 00:59N 64°51' E 011°14'0 0.0
2017-Dec-10 00:29N 64°51' E 011°14'0 0.0
2017-Dec-09 23:59N 64°51' E 011°14'0 0.0
2017-Dec-09 23:29N 64°51' E 011°14'0 0.0
2017-Dec-09 22:59N 64°51' E 011°14'0 0.0
2017-Dec-09 22:29N 64°51' E 011°14'0 0.0
2017-Dec-09 21:59N 64°51' E 011°14'0 0.0
2017-Dec-09 21:29N 64°51' E 011°14'0 0.0
2017-Dec-09 20:59N 64°51' E 011°14'0 0.0
2017-Dec-09 20:29N 64°51' E 011°14'0 0.0
2017-Dec-09 19:59N 64°51' E 011°14'0 0.0
2017-Dec-09 19:29N 64°51' E 011°14'0 0.0
2017-Dec-09 18:59N 64°51' E 011°14'0 0.0
2017-Dec-09 18:29N 64°51' E 011°14'0 0.0
2017-Dec-09 17:59N 64°51' E 011°14'0 0.0
2017-Dec-09 17:29N 64°51' E 011°14'0 0.0
2017-Dec-09 16:59N 64°51' E 011°14'0 0.0
2017-Dec-09 16:29N 64°51' E 011°14'0 0.0
2017-Dec-09 15:59N 64°51' E 011°14'0 0.0
2017-Dec-09 15:29N 64°51' E 011°14'0 0.0
2017-Dec-09 14:59N 64°51' E 011°14'0 0.0
2017-Dec-09 14:29N 64°51' E 011°14'0 0.0
2017-Dec-09 13:59N 64°51' E 011°14'0 0.0
2017-Dec-09 13:29N 64°51' E 011°14'0 0.0
2017-Dec-09 12:59N 64°51' E 011°14'0 0.0
2017-Dec-09 12:29N 64°51' E 011°14'0 0.0
2017-Dec-09 11:59N 64°51' E 011°14'0 0.0
2017-Dec-09 11:29N 64°51' E 011°14'0 0.0
2017-Dec-09 10:59N 64°51' E 011°14'0 0.0
2017-Dec-09 10:29N 64°51' E 011°14'0 0.0
2017-Dec-09 09:59N 64°51' E 011°14'0 0.0
2017-Dec-09 09:29N 64°51' E 011°14'0 0.0
2017-Dec-09 08:59N 64°51' E 011°14'0 0.0
2017-Dec-09 08:29N 64°51' E 011°14'0 0.0
2017-Dec-09 07:59N 64°51' E 011°14'0 0.0
2017-Dec-09 07:29N 64°51' E 011°14'0 0.0
2017-Dec-09 06:59N 64°51' E 011°14'0 0.0
2017-Dec-09 06:29N 64°51' E 011°14'0 0.0
2017-Dec-09 05:59N 64°51' E 011°14'0 0.0
2017-Dec-09 05:29N 64°51' E 011°14'0 0.0
2017-Dec-09 04:59N 64°51' E 011°14'0 0.0
2017-Dec-09 04:29N 64°51' E 011°14'0 0.0
2017-Dec-09 03:59N 64°51' E 011°14'0 0.0
2017-Dec-09 03:29N 64°51' E 011°14'0 0.0
2017-Dec-09 02:59N 64°51' E 011°14'0 0.0
2017-Dec-09 02:29N 64°51' E 011°14'0 0.0
2017-Dec-09 01:59N 64°51' E 011°14'0 0.0
2017-Dec-09 01:29N 64°51' E 011°14'0 0.0
2017-Dec-09 00:59N 64°51' E 011°14'0 0.0
2017-Dec-09 00:29N 64°51' E 011°14'0 0.0
2017-Dec-08 23:59N 64°51' E 011°14'0 0.0
2017-Dec-08 23:29N 64°51' E 011°14'0 0.0
2017-Dec-08 22:59N 64°51' E 011°14'0 0.0
2017-Dec-08 22:29N 64°51' E 011°14'0 0.0
2017-Dec-08 21:59N 64°51' E 011°14'0 0.0
2017-Dec-08 21:29N 64°51' E 011°14'0 0.0
2017-Dec-08 20:59N 64°51' E 011°14'0 0.0
2017-Dec-08 20:29N 64°51' E 011°14'0 0.0
2017-Dec-08 19:59N 64°51' E 011°14'0 0.0
2017-Dec-08 19:29N 64°51' E 011°14'0 0.0
2017-Dec-08 18:59N 64°51' E 011°14'0 0.0
2017-Dec-08 18:29N 64°51' E 011°14'0 0.0
2017-Dec-08 17:59N 64°51' E 011°14'0 0.0
2017-Dec-08 17:29N 64°51' E 011°14'0 0.0
2017-Dec-08 16:53N 64°51' E 011°14'0 0.0
2017-Dec-08 16:29N 64°51' E 011°14'0 0.0
2017-Dec-08 15:59N 64°51' E 011°14'0 0.0
2017-Dec-08 15:29N 64°51' E 011°14'0 0.0
2017-Dec-08 14:59N 64°51' E 011°14'0 0.0
2017-Dec-08 14:29N 64°51' E 011°14'0 0.0
2017-Dec-08 13:59N 64°51' E 011°14'0 0.0
2017-Dec-08 13:29N 64°51' E 011°14'0 0.0
2017-Dec-08 12:59N 64°51' E 011°14'0 0.0
2017-Dec-08 12:29N 64°51' E 011°14'0 0.0
2017-Dec-08 11:59N 64°51' E 011°14'0 0.0
2017-Dec-08 11:29N 64°51' E 011°14'0 0.0
2017-Dec-08 10:59N 64°51' E 011°14'0 0.0
2017-Dec-08 10:29N 64°51' E 011°14'0 0.0
2017-Dec-08 09:59N 64°51' E 011°14'0 0.0
2017-Dec-08 09:29N 64°51' E 011°14'0 0.0
2017-Dec-08 08:59N 64°51' E 011°14'0 0.0
2017-Dec-08 08:29N 64°51' E 011°14'0 0.0
2017-Dec-08 07:59N 64°51' E 011°14'0 0.0
2017-Dec-08 07:29N 64°51' E 011°14'0 0.0
2017-Dec-08 06:59N 64°51' E 011°14'0 0.0
2017-Dec-08 06:29N 64°51' E 011°14'0 0.0
2017-Dec-08 05:59N 64°51' E 011°14'0 0.0
2017-Dec-08 05:29N 64°51' E 011°14'0 0.0
2017-Dec-08 04:59N 64°51' E 011°14'0 0.0
2017-Dec-08 04:29N 64°51' E 011°14'0 0.0
2017-Dec-08 03:59N 64°51' E 011°14'0 0.0
2017-Dec-08 03:29N 64°51' E 011°14'0 0.0
2017-Dec-08 02:59N 64°51' E 011°14'0 0.0
2017-Dec-08 02:29N 64°51' E 011°14'0 0.0
2017-Dec-08 01:59N 64°51' E 011°14'0 0.0
2017-Dec-08 01:29N 64°51' E 011°14'0 0.0
2017-Dec-08 00:59N 64°51' E 011°14'0 0.0
2017-Dec-08 00:29N 64°51' E 011°14'0 0.0
2017-Dec-07 23:59N 64°51' E 011°14'0 0.0
2017-Dec-07 23:29N 64°51' E 011°14'0 0.0
2017-Dec-07 22:59N 64°51' E 011°14'0 0.0
2017-Dec-07 22:29N 64°51' E 011°14'0 0.0
2017-Dec-07 21:59N 64°51' E 011°14'0 0.0
2017-Dec-07 21:29N 64°51' E 011°14'0 0.0
2017-Dec-07 20:59N 64°51' E 011°14'0 0.0
2017-Dec-07 20:29N 64°51' E 011°14'0 0.0
2017-Dec-07 19:59N 64°51' E 011°14'0 0.0
2017-Dec-07 19:29N 64°51' E 011°14'0 0.0
2017-Dec-07 18:59N 64°51' E 011°14'0 0.0
2017-Dec-07 18:29N 64°51' E 011°14'0 0.0
2017-Dec-07 17:59N 64°51' E 011°14'0 0.0
2017-Dec-07 17:29N 64°51' E 011°14'0 0.0
2017-Dec-07 16:59N 64°51' E 011°14'0 0.0
2017-Dec-07 16:29N 64°51' E 011°14'0 0.0
2017-Dec-07 15:59N 64°51' E 011°14'0 0.0
2017-Dec-07 15:29N 64°51' E 011°14'0 0.0
2017-Dec-07 14:59N 64°51' E 011°14'0 0.0
2017-Dec-07 14:29N 64°51' E 011°14'0 0.0
2017-Dec-07 13:59N 64°51' E 011°14'0 0.0
2017-Dec-07 13:29N 64°51' E 011°14'0 0.0
2017-Dec-07 12:59N 64°51' E 011°14'0 0.0
2017-Dec-07 12:29N 64°51' E 011°14'0 0.0
2017-Dec-07 11:56N 64°51' E 011°14'0 0.0
2017-Dec-07 11:29N 64°51' E 011°14'0 0.0
2017-Dec-07 10:59N 64°51' E 011°14'0 0.0
2017-Dec-07 10:29N 64°51' E 011°14'0 0.0
2017-Dec-07 09:59N 64°51' E 011°14'0 0.0
2017-Dec-07 09:29N 64°51' E 011°14'0 0.0
2017-Dec-07 08:59N 64°51' E 011°14'0 0.0
2017-Dec-07 08:29N 64°51' E 011°14'0 0.0
2017-Dec-07 07:59N 64°51' E 011°14'0 0.0
2017-Dec-07 07:29N 64°51' E 011°14'0 0.0
2017-Dec-07 06:59N 64°51' E 011°14'0 0.0
2017-Dec-07 06:29N 64°51' E 011°14'0 0.0
2017-Dec-07 05:59N 64°51' E 011°14'0 0.0
2017-Dec-07 05:29N 64°51' E 011°14'0 0.0
2017-Dec-07 04:59N 64°51' E 011°14'0 0.0
2017-Dec-07 04:29N 64°51' E 011°14'0 0.0
2017-Dec-07 03:59N 64°51' E 011°14'0 0.0
2017-Dec-07 03:29N 64°51' E 011°14'0 0.0
2017-Dec-07 02:59N 64°51' E 011°14'0 0.0
2017-Dec-07 02:29N 64°51' E 011°14'0 0.0
2017-Dec-07 01:59N 64°51' E 011°14'0 0.0
2017-Dec-07 01:29N 64°51' E 011°14'0 0.0
2017-Dec-07 00:59N 64°51' E 011°14'0 0.0
2017-Dec-07 00:29N 64°51' E 011°14'0 0.0
2017-Dec-06 23:59N 64°51' E 011°14'0 0.0
2017-Dec-06 23:29N 64°51' E 011°14'0 0.0
2017-Dec-06 22:59N 64°51' E 011°14'0 0.0
2017-Dec-06 22:29N 64°51' E 011°14'0 0.0
2017-Dec-06 21:59N 64°51' E 011°14'0 0.0
2017-Dec-06 21:29N 64°51' E 011°14'0 0.0
2017-Dec-06 20:59N 64°51' E 011°14'  
Track history (hours):
 
Tides and Currents Weather Stations Pressure Air Temp Water Temp Dewpoint Dewpoint Depression Visibility Wind Speed Wind Dir Waves Ship Positions

Oceanographic research ship Fangst (Norway)

Detailed information on ship capabilities available from University of Delaware's Ocean Information Center and ARCUS's ALIAS (Arctic Logistics Information and Support) project.

Last reported at 2017-Dec-14 16:19 UTC. Time now 2017-Dec-18 09:17 UTC.
Position N 62°42' E 006°39'.

Length 14 m; draft 3 m.

Type: Fishing. MMSI: 257076840.

Date/timePositionNaut miles runAvg speedWind from/ knotsBaromVisibWave heightAir tempDewpointWater temp
2017-Dec-14 16:19N 62°42' E 006°39'2 5.6
2017-Dec-14 15:58N 62°44' E 006°39'7 7.0
2017-Dec-14 15:00N 62°50' E 006°45'4 7.2
2017-Dec-14 14:30N 62°53' E 006°51'3 6.6
2017-Dec-14 14:00N 62°55' E 006°56'5 6.9
2017-Dec-14 13:20N 62°59' E 007°02'2 7.4
2017-Dec-14 13:00N 63°00' E 007°07'4 7.6
2017-Dec-14 12:30N 63°01' E 007°15'4 7.6
2017-Dec-14 12:00N 63°03' E 007°22'4 7.8
2017-Dec-14 11:31N 63°05' E 007°29'4 7.7
2017-Dec-14 11:00N 63°07' E 007°36'4 7.1
2017-Dec-14 10:31N 63°07' E 007°44'0 0.4
2017-Dec-14 10:00N 63°07' E 007°44'0 0.0
2017-Dec-14 09:30N 63°07' E 007°44'0 0.0
2017-Dec-14 09:00N 63°07' E 007°44'2 4.6
2017-Dec-14 08:30N 63°08' E 007°48'3 6.0
2017-Dec-14 08:00N 63°10' E 007°53'3 6.9
2017-Dec-14 07:30N 63°13' E 007°58'4 7.2
2017-Dec-14 07:00N 63°15' E 008°04'3 6.7
2017-Dec-14 06:29N 63°17' E 008°10'112 6.5
2017-Dec-13 13:11N 64°43' E 010°54'2 7.5
2017-Dec-13 12:53N 64°44' E 010°58'3 7.4
2017-Dec-13 12:30N 64°46' E 011°03'4 7.4
2017-Dec-13 12:00N 64°49' E 011°08'3 6.6
2017-Dec-13 11:31N 64°51' E 011°14'0 0.0
2017-Dec-13 11:00N 64°51' E 011°14'0 0.0
2017-Dec-13 10:30N 64°51' E 011°14'0 0.0
2017-Dec-13 10:00N 64°51' E 011°14'0 0.0
2017-Dec-13 09:30N 64°51' E 011°14'0 0.0
2017-Dec-13 09:00N 64°51' E 011°14'0 0.0
2017-Dec-13 08:30N 64°51' E 011°14'0 0.0
2017-Dec-13 08:00N 64°51' E 011°14'0 0.0
2017-Dec-13 07:30N 64°51' E 011°14'0 0.0
2017-Dec-13 07:00N 64°51' E 011°14'0 0.0
2017-Dec-13 06:30N 64°51' E 011°14'0 0.0
2017-Dec-13 06:00N 64°51' E 011°14'0 0.0
2017-Dec-13 05:30N 64°51' E 011°14'0 0.0
2017-Dec-13 05:00N 64°51' E 011°14'0 0.0
2017-Dec-13 04:30N 64°51' E 011°14'0 0.0
2017-Dec-13 04:00N 64°51' E 011°14'0 0.0
2017-Dec-13 03:30N 64°51' E 011°14'0 0.0
2017-Dec-13 03:00N 64°51' E 011°14'0 0.0
2017-Dec-13 02:30N 64°51' E 011°14'0 0.0
2017-Dec-13 02:00N 64°51' E 011°14'0 0.0
2017-Dec-13 01:30N 64°51' E 011°14'0 0.0
2017-Dec-13 01:00N 64°51' E 011°14'0 0.0
2017-Dec-13 00:30N 64°51' E 011°14'0 0.0
2017-Dec-13 00:00N 64°51' E 011°14'0 0.0
2017-Dec-12 23:30N 64°51' E 011°14'0 0.0
2017-Dec-12 23:00N 64°51' E 011°14'0 0.0
2017-Dec-12 22:30N 64°51' E 011°14'0 0.0
2017-Dec-12 22:00N 64°51' E 011°14'0 0.0
2017-Dec-12 21:30N 64°51' E 011°14'0 0.0
2017-Dec-12 21:00N 64°51' E 011°14'0 0.0
2017-Dec-12 20:30N 64°51' E 011°14'0 0.0
2017-Dec-12 20:00N 64°51' E 011°14'0 0.0
2017-Dec-12 19:30N 64°51' E 011°14'0 0.0
2017-Dec-12 19:00N 64°51' E 011°14'0 0.0
2017-Dec-12 18:30N 64°51' E 011°14'0 0.0
2017-Dec-12 18:00N 64°51' E 011°14'0 0.0
2017-Dec-12 17:30N 64°51' E 011°14'0 0.0
2017-Dec-12 17:00N 64°51' E 011°14'0 0.0
2017-Dec-12 16:30N 64°51' E 011°14'0 0.0
2017-Dec-12 16:00N 64°51' E 011°14'0 0.0
2017-Dec-12 15:30N 64°51' E 011°14'0 0.0
2017-Dec-12 15:00N 64°51' E 011°14'0 0.0
2017-Dec-12 14:30N 64°51' E 011°14'0 0.0
2017-Dec-12 14:00N 64°51' E 011°14'0 0.0
2017-Dec-12 13:30N 64°51' E 011°14'0 0.0
2017-Dec-12 13:00N 64°51' E 011°14'0 0.0
2017-Dec-12 12:30N 64°51' E 011°14'0 0.0
2017-Dec-12 11:58N 64°51' E 011°14'0 0.9
2017-Dec-12 11:31N 64°51' E 011°13'3 6.4
2017-Dec-12 11:01N 64°49' E 011°08'2 3.2
2017-Dec-12 10:30N 64°48' E 011°06'3 5.8
2017-Dec-12 10:01N 64°50' E 011°10'2 4.0
2017-Dec-12 09:31N 64°51' E 011°13'1 1.5
2017-Dec-12 08:58N 64°52' E 011°15'0 0.1
2017-Dec-12 08:28N 64°52' E 011°15'0 0.0
2017-Dec-12 07:58N 64°52' E 011°15'0 0.0
2017-Dec-12 07:28N 64°52' E 011°15'0 0.9
2017-Dec-12 06:58N 64°51' E 011°14'0 0.0
2017-Dec-12 06:28N 64°51' E 011°14'0 0.0
2017-Dec-12 05:58N 64°51' E 011°14'0 0.0
2017-Dec-12 05:28N 64°51' E 011°14'0 0.0
2017-Dec-12 04:58N 64°51' E 011°14'0 0.0
2017-Dec-12 04:28N 64°51' E 011°14'0 0.0
2017-Dec-12 03:58N 64°51' E 011°14'0 0.0
2017-Dec-12 03:28N 64°51' E 011°14'0 0.0
2017-Dec-12 02:58N 64°51' E 011°14'0 0.0
2017-Dec-12 02:28N 64°51' E 011°14'0 0.0
2017-Dec-12 01:58N 64°51' E 011°14'0 0.0
2017-Dec-12 01:25N 64°51' E 011°14'0 0.0
2017-Dec-12 00:58N 64°51' E 011°14'0 0.0
2017-Dec-12 00:28N 64°51' E 011°14'0 0.0
2017-Dec-11 23:58N 64°51' E 011°14'0 0.0
2017-Dec-11 23:28N 64°51' E 011°14'0 0.0
2017-Dec-11 22:58N 64°51' E 011°14'0 0.0
2017-Dec-11 22:28N 64°51' E 011°14'0 0.0
2017-Dec-11 21:58N 64°51' E 011°14'0 0.0
2017-Dec-11 21:28N 64°51' E 011°14'0 0.0
2017-Dec-11 20:58N 64°51' E 011°14'0 0.0
2017-Dec-11 20:28N 64°51' E 011°14'0 0.0
2017-Dec-11 19:58N 64°51' E 011°14'0 0.0
2017-Dec-11 19:28N 64°51' E 011°14'2 4.6
2017-Dec-11 19:00N 64°53' E 011°18'3 6.5
2017-Dec-11 18:30N 64°56' E 011°22'2 4.6
2017-Dec-11 18:00N 64°58' E 011°20'3 6.5
2017-Dec-11 17:30N 64°59' E 011°13'3 4.9
2017-Dec-11 16:53N 64°58' E 011°06'5 0.5
2017-Dec-11 06:18N 64°54' E 010°56'2 7.0
2017-Dec-11 06:00N 64°55' E 011°00'3 6.5
2017-Dec-11 05:30N 64°58' E 011°06'4 7.3
2017-Dec-11 05:00N 64°59' E 011°14'4 7.6
2017-Dec-11 04:30N 64°57' E 011°22'4 7.1
2017-Dec-11 04:00N 64°54' E 011°20'4 7.2
2017-Dec-11 03:30N 64°51' E 011°14'0 0.4
2017-Dec-11 02:59N 64°51' E 011°14'0 0.0
2017-Dec-11 02:29N 64°51' E 011°14'0 0.0
2017-Dec-11 01:59N 64°51' E 011°14'0 0.0
2017-Dec-11 01:29N 64°51' E 011°14'0 0.0
2017-Dec-11 00:59N 64°51' E 011°14'0 0.0
2017-Dec-11 00:29N 64°51' E 011°14'0 0.0
2017-Dec-10 23:59N 64°51' E 011°14'0 0.0
2017-Dec-10 23:29N 64°51' E 011°14'0 0.0
2017-Dec-10 22:59N 64°51' E 011°14'0 0.0
2017-Dec-10 22:29N 64°51' E 011°14'0 0.0
2017-Dec-10 21:59N 64°51' E 011°14'0 0.0
2017-Dec-10 21:29N 64°51' E 011°14'0 0.0
2017-Dec-10 20:59N 64°51' E 011°14'0 0.0
2017-Dec-10 20:29N 64°51' E 011°14'0 0.0
2017-Dec-10 19:59N 64°51' E 011°14'0 0.0
2017-Dec-10 19:29N 64°51' E 011°14'0 0.0
2017-Dec-10 18:59N 64°51' E 011°14'0 0.0
2017-Dec-10 18:29N 64°51' E 011°14'0 0.0
2017-Dec-10 17:59N 64°51' E 011°14'0 0.0
2017-Dec-10 17:29N 64°51' E 011°14'0 0.0
2017-Dec-10 16:59N 64°51' E 011°14'0 0.0
2017-Dec-10 16:29N 64°51' E 011°14'0 0.0
2017-Dec-10 15:59N 64°51' E 011°14'0 0.0
2017-Dec-10 15:29N 64°51' E 011°14'0 0.0
2017-Dec-10 14:59N 64°51' E 011°14'0 0.0
2017-Dec-10 14:29N 64°51' E 011°14'0 0.0
2017-Dec-10 13:59N 64°51' E 011°14'0 0.0
2017-Dec-10 13:29N 64°51' E 011°14'0 0.0
2017-Dec-10 12:59N 64°51' E 011°14'0 0.0
2017-Dec-10 12:29N 64°51' E 011°14'0 0.0
2017-Dec-10 11:59N 64°51' E 011°14'0 0.0
2017-Dec-10 11:29N 64°51' E 011°14'0 0.0
2017-Dec-10 10:59N 64°51' E 011°14'0 0.0
2017-Dec-10 10:29N 64°51' E 011°14'0 0.0
2017-Dec-10 09:59N 64°51' E 011°14'0 0.0
2017-Dec-10 09:29N 64°51' E 011°14'0 0.0
2017-Dec-10 08:59N 64°51' E 011°14'0 0.0
2017-Dec-10 08:29N 64°51' E 011°14'0 0.0
2017-Dec-10 07:59N 64°51' E 011°14'0 0.0
2017-Dec-10 07:29N 64°51' E 011°14'0 0.0
2017-Dec-10 06:59N 64°51' E 011°14'0 0.0
2017-Dec-10 06:29N 64°51' E 011°14'0 0.0
2017-Dec-10 05:59N 64°51' E 011°14'0 0.0
2017-Dec-10 05:29N 64°51' E 011°14'0 0.0
2017-Dec-10 04:59N 64°51' E 011°14'0 0.0
2017-Dec-10 04:29N 64°51' E 011°14'0 0.0
2017-Dec-10 03:59N 64°51' E 011°14'0 0.0
2017-Dec-10 03:29N 64°51' E 011°14'0 0.0
2017-Dec-10 02:59N 64°51' E 011°14'0 0.0
2017-Dec-10 02:29N 64°51' E 011°14'0 0.0
2017-Dec-10 01:59N 64°51' E 011°14'0 0.0
2017-Dec-10 01:29N 64°51' E 011°14'0 0.0
2017-Dec-10 00:59N 64°51' E 011°14'0 0.0
2017-Dec-10 00:29N 64°51' E 011°14'0 0.0
2017-Dec-09 23:59N 64°51' E 011°14'0 0.0
2017-Dec-09 23:29N 64°51' E 011°14'0 0.0
2017-Dec-09 22:59N 64°51' E 011°14'0 0.0
2017-Dec-09 22:29N 64°51' E 011°14'0 0.0
2017-Dec-09 21:59N 64°51' E 011°14'0 0.0
2017-Dec-09 21:29N 64°51' E 011°14'0 0.0
2017-Dec-09 20:59N 64°51' E 011°14'0 0.0
2017-Dec-09 20:29N 64°51' E 011°14'0 0.0
2017-Dec-09 19:59N 64°51' E 011°14'0 0.0
2017-Dec-09 19:29N 64°51' E 011°14'0 0.0
2017-Dec-09 18:59N 64°51' E 011°14'0 0.0
2017-Dec-09 18:29N 64°51' E 011°14'0 0.0
2017-Dec-09 17:59N 64°51' E 011°14'0 0.0
2017-Dec-09 17:29N 64°51' E 011°14'0 0.0
2017-Dec-09 16:59N 64°51' E 011°14'0 0.0
2017-Dec-09 16:29N 64°51' E 011°14'0 0.0
2017-Dec-09 15:59N 64°51' E 011°14'0 0.0
2017-Dec-09 15:29N 64°51' E 011°14'0 0.0
2017-Dec-09 14:59N 64°51' E 011°14'0 0.0
2017-Dec-09 14:29N 64°51' E 011°14'0 0.0
2017-Dec-09 13:59N 64°51' E 011°14'0 0.0
2017-Dec-09 13:29N 64°51' E 011°14'0 0.0
2017-Dec-09 12:59N 64°51' E 011°14'0 0.0
2017-Dec-09 12:29N 64°51' E 011°14'0 0.0
2017-Dec-09 11:59N 64°51' E 011°14'0 0.0
2017-Dec-09 11:29N 64°51' E 011°14'0 0.0
2017-Dec-09 10:59N 64°51' E 011°14'0 0.0
2017-Dec-09 10:29N 64°51' E 011°14'0 0.0
2017-Dec-09 09:59N 64°51' E 011°14'0 0.0
2017-Dec-09 09:29N 64°51' E 011°14'0 0.0
2017-Dec-09 08:59N 64°51' E 011°14'0 0.0
2017-Dec-09 08:29N 64°51' E 011°14'0 0.0
2017-Dec-09 07:59N 64°51' E 011°14'0 0.0
2017-Dec-09 07:29N 64°51' E 011°14'0 0.0
2017-Dec-09 06:59N 64°51' E 011°14'0 0.0
2017-Dec-09 06:29N 64°51' E 011°14'0 0.0
2017-Dec-09 05:59N 64°51' E 011°14'0 0.0
2017-Dec-09 05:29N 64°51' E 011°14'0 0.0
2017-Dec-09 04:59N 64°51' E 011°14'0 0.0
2017-Dec-09 04:29N 64°51' E 011°14'0 0.0
2017-Dec-09 03:59N 64°51' E 011°14'0 0.0
2017-Dec-09 03:29N 64°51' E 011°14'0 0.0
2017-Dec-09 02:59N 64°51' E 011°14'0 0.0
2017-Dec-09 02:29N 64°51' E 011°14'0 0.0
2017-Dec-09 01:59N 64°51' E 011°14'0 0.0
2017-Dec-09 01:29N 64°51' E 011°14'0 0.0
2017-Dec-09 00:59N 64°51' E 011°14'0 0.0
2017-Dec-09 00:29N 64°51' E 011°14'0 0.0
2017-Dec-08 23:59N 64°51' E 011°14'0 0.0
2017-Dec-08 23:29N 64°51' E 011°14'0 0.0
2017-Dec-08 22:59N 64°51' E 011°14'0 0.0
2017-Dec-08 22:29N 64°51' E 011°14'0 0.0
2017-Dec-08 21:59N 64°51' E 011°14'0 0.0
2017-Dec-08 21:29N 64°51' E 011°14'0 0.0
2017-Dec-08 20:59N 64°51' E 011°14'0 0.0
2017-Dec-08 20:29N 64°51' E 011°14'0 0.0
2017-Dec-08 19:59N 64°51' E 011°14'0 0.0
2017-Dec-08 19:29N 64°51' E 011°14'0 0.0
2017-Dec-08 18:59N 64°51' E 011°14'0 0.0
2017-Dec-08 18:29N 64°51' E 011°14'0 0.0
2017-Dec-08 17:59N 64°51' E 011°14'0 0.0
2017-Dec-08 17:29N 64°51' E 011°14'0 0.0
2017-Dec-08 16:53N 64°51' E 011°14'0 0.0
2017-Dec-08 16:29N 64°51' E 011°14'0 0.0
2017-Dec-08 15:59N 64°51' E 011°14'0 0.0
2017-Dec-08 15:29N 64°51' E 011°14'0 0.0
2017-Dec-08 14:59N 64°51' E 011°14'0 0.0
2017-Dec-08 14:29N 64°51' E 011°14'0 0.0
2017-Dec-08 13:59N 64°51' E 011°14'0 0.0
2017-Dec-08 13:29N 64°51' E 011°14'0 0.0
2017-Dec-08 12:59N 64°51' E 011°14'0 0.0
2017-Dec-08 12:29N 64°51' E 011°14'0 0.0
2017-Dec-08 11:59N 64°51' E 011°14'0 0.0
2017-Dec-08 11:29N 64°51' E 011°14'0 0.0
2017-Dec-08 10:59N 64°51' E 011°14'0 0.0
2017-Dec-08 10:29N 64°51' E 011°14'0 0.0
2017-Dec-08 09:59N 64°51' E 011°14'0 0.0
2017-Dec-08 09:29N 64°51' E 011°14'0 0.0
2017-Dec-08 08:59N 64°51' E 011°14'0 0.0
2017-Dec-08 08:29N 64°51' E 011°14'0 0.0
2017-Dec-08 07:59N 64°51' E 011°14'0 0.0
2017-Dec-08 07:29N 64°51' E 011°14'0 0.0
2017-Dec-08 06:59N 64°51' E 011°14'0 0.0
2017-Dec-08 06:29N 64°51' E 011°14'0 0.0
2017-Dec-08 05:59N 64°51' E 011°14'0 0.0
2017-Dec-08 05:29N 64°51' E 011°14'0 0.0
2017-Dec-08 04:59N 64°51' E 011°14'0 0.0
2017-Dec-08 04:29N 64°51' E 011°14'0 0.0
2017-Dec-08 03:59N 64°51' E 011°14'0 0.0
2017-Dec-08 03:29N 64°51' E 011°14'0 0.0
2017-Dec-08 02:59N 64°51' E 011°14'0 0.0
2017-Dec-08 02:29N 64°51' E 011°14'0 0.0
2017-Dec-08 01:59N 64°51' E 011°14'0 0.0
2017-Dec-08 01:29N 64°51' E 011°14'0 0.0
2017-Dec-08 00:59N 64°51' E 011°14'0 0.0
2017-Dec-08 00:29N 64°51' E 011°14'0 0.0
2017-Dec-07 23:59N 64°51' E 011°14'0 0.0
2017-Dec-07 23:29N 64°51' E 011°14'0 0.0
2017-Dec-07 22:59N 64°51' E 011°14'0 0.0
2017-Dec-07 22:29N 64°51' E 011°14'0 0.0
2017-Dec-07 21:59N 64°51' E 011°14'0 0.0
2017-Dec-07 21:29N 64°51' E 011°14'0 0.0
2017-Dec-07 20:59N 64°51' E 011°14'0 0.0
2017-Dec-07 20:29N 64°51' E 011°14'0 0.0
2017-Dec-07 19:59N 64°51' E 011°14'0 0.0
2017-Dec-07 19:29N 64°51' E 011°14'0 0.0
2017-Dec-07 18:59N 64°51' E 011°14'0 0.0
2017-Dec-07 18:29N 64°51' E 011°14'0 0.0
2017-Dec-07 17:59N 64°51' E 011°14'0 0.0
2017-Dec-07 17:29N 64°51' E 011°14'0 0.0
2017-Dec-07 16:59N 64°51' E 011°14'0 0.0
2017-Dec-07 16:29N 64°51' E 011°14'0 0.0
2017-Dec-07 15:59N 64°51' E 011°14'0 0.0
2017-Dec-07 15:29N 64°51' E 011°14'0 0.0
2017-Dec-07 14:59N 64°51' E 011°14'0 0.0
2017-Dec-07 14:29N 64°51' E 011°14'0 0.0
2017-Dec-07 13:59N 64°51' E 011°14'0 0.0
2017-Dec-07 13:29N 64°51' E 011°14'0 0.0
2017-Dec-07 12:59N 64°51' E 011°14'0 0.0
2017-Dec-07 12:29N 64°51' E 011°14'0 0.0
2017-Dec-07 11:56N 64°51' E 011°14'0 0.0
2017-Dec-07 11:29N 64°51' E 011°14'0 0.0
2017-Dec-07 10:59N 64°51' E 011°14'0 0.0
2017-Dec-07 10:29N 64°51' E 011°14'0 0.0
2017-Dec-07 09:59N 64°51' E 011°14'0 0.0
2017-Dec-07 09:29N 64°51' E 011°14'0 0.0
2017-Dec-07 08:59N 64°51' E 011°14'0 0.0
2017-Dec-07 08:29N 64°51' E 011°14'0 0.0
2017-Dec-07 07:59N 64°51' E 011°14'0 0.0
2017-Dec-07 07:29N 64°51' E 011°14'0 0.0
2017-Dec-07 06:59N 64°51' E 011°14'0 0.0
2017-Dec-07 06:29N 64°51' E 011°14'0 0.0
2017-Dec-07 05:59N 64°51' E 011°14'0 0.0
2017-Dec-07 05:29N 64°51' E 011°14'0 0.0
2017-Dec-07 04:59N 64°51' E 011°14'0 0.0
2017-Dec-07 04:29N 64°51' E 011°14'0 0.0
2017-Dec-07 03:59N 64°51' E 011°14'0 0.0
2017-Dec-07 03:29N 64°51' E 011°14'0 0.0
2017-Dec-07 02:59N 64°51' E 011°14'0 0.0
2017-Dec-07 02:29N 64°51' E 011°14'0 0.0
2017-Dec-07 01:59N 64°51' E 011°14'0 0.0
2017-Dec-07 01:29N 64°51' E 011°14'0 0.0
2017-Dec-07 00:59N 64°51' E 011°14'0 0.0
2017-Dec-07 00:29N 64°51' E 011°14'0 0.0
2017-Dec-06 23:59N 64°51' E 011°14'0 0.0
2017-Dec-06 23:29N 64°51' E 011°14'0 0.0
2017-Dec-06 22:59N 64°51' E 011°14'0 0.0
2017-Dec-06 22:29N 64°51' E 011°14'0 0.0
2017-Dec-06 21:59N 64°51' E 011°14'0 0.0
2017-Dec-06 21:29N 64°51' E 011°14'0 0.0
2017-Dec-06 20:59N 64°51' E 011°14'  

Dump ship's entire track history